Time;durP1;ratioP1;P1;durP2;ratioP2;P2;SDS_P1;SDS_P2;PMS_P1;PMS_P2;Temp;Humidity;BMP_temperature;BMP_pressure;BME280_temperature;BME280_humidity;BME280_pressure;Samples;Min_cycle;Max_cycle;Signal;HPM_P1;HPM_P2
2023/08/22 00:00:32;;;;;;;7.28;6.53;;;;;;;28.14;53.32;101315.25;5050599;28;20060;-53
2023/08/22 00:03:00;;;;;;;7.55;6.85;;;;;;;28.15;53.38;101315.06;5046863;28;20045;-54
2023/08/22 00:05:28;;;;;;;7.40;6.60;;;;;;;28.15;53.03;101315.06;5049419;28;20060;-54
2023/08/22 00:07:56;;;;;;;7.10;6.40;;;;;;;28.16;53.31;101305.88;5040445;28;20041;-52
2023/08/22 00:10:23;;;;;;;7.20;6.50;;;;;;;28.17;53.05;101317.63;5050427;28;20060;-54
2023/08/22 00:12:51;;;;;;;6.97;6.30;;;;;;;28.18;53.30;101313.84;5045201;28;20056;-53
2023/08/22 00:15:18;;;;;;;7.78;7.07;;;;;;;28.18;53.48;101308.41;5042896;28;20049;-53
2023/08/22 00:17:45;;;;;;;7.90;7.20;;;;;;;28.19;53.29;101299.22;5050485;28;20045;-62
2023/08/22 00:20:13;;;;;;;6.95;6.35;;;;;;;28.19;53.03;101305.50;5041891;28;20060;-62
2023/08/22 00:22:41;;;;;;;7.47;6.57;;;;;;;28.19;53.23;101305.50;5035095;28;20045;-61
2023/08/22 00:25:10;;;;;;;7.22;6.53;;;;;;;28.20;53.08;101309.94;5047110;28;20052;-61
2023/08/22 00:27:38;;;;;;;6.88;6.28;;;;;;;28.21;53.35;101303.47;5039322;28;20056;-55
2023/08/22 00:30:07;;;;;;;6.32;5.55;;;;;;;28.22;53.38;101305.16;5050100;28;20049;-54
2023/08/22 00:32:35;;;;;;;7.38;6.68;;;;;;;28.23;53.33;101304.13;5036591;28;20045;-52
2023/08/22 00:35:02;;;;;;;6.75;6.15;;;;;;;28.22;53.28;101301.59;5049106;28;20490;-52
2023/08/22 00:37:30;;;;;;;6.80;6.20;;;;;;;28.24;53.37;101305.84;5039739;28;20049;-61
2023/08/22 00:39:58;;;;;;;7.18;6.47;;;;;;;28.25;53.50;101314.84;5049455;28;20064;-61
2023/08/22 00:42:25;;;;;;;7.07;6.40;;;;;;;28.24;53.41;101308.56;5043792;28;20045;-61
2023/08/22 00:44:54;;;;;;;7.22;6.22;;;;;;;28.24;53.03;101305.00;5041001;28;20054;-62
2023/08/22 00:47:22;;;;;;;6.72;6.03;;;;;;;28.24;53.12;101303.09;5034245;28;20060;-61
2023/08/22 00:49:50;;;;;;;7.13;6.43;;;;;;;28.25;53.45;101299.34;5037839;28;20056;-61
2023/08/22 00:52:18;;;;;;;7.03;6.32;;;;;;;28.26;53.30;101294.75;5045099;28;20479;-62
2023/08/22 00:54:47;;;;;;;7.10;6.40;;;;;;;28.26;53.29;101300.19;5035961;28;20388;-61
2023/08/22 00:57:14;;;;;;;6.75;6.05;;;;;;;28.27;53.34;101285.53;5035894;28;20048;-61
2023/08/22 00:59:42;;;;;;;7.85;7.07;;;;;;;28.27;53.34;101299.16;5035941;28;20049;-54
2023/08/22 01:02:10;;;;;;;7.43;6.60;;;;;;;28.27;53.37;101280.09;5034227;28;20053;-54
2023/08/22 01:04:37;;;;;;;8.18;6.72;;;;;;;28.28;53.06;101295.44;5034622;28;20060;-53
2023/08/22 01:07:31;;;;;;;7.90;6.95;;;;;;;28.28;53.07;101284.53;5033997;28;20052;-53
2023/08/22 01:10:11;;;;;;;7.10;6.40;;;;;;;28.29;53.59;101286.22;5035671;28;20068;-54
2023/08/22 01:12:49;;;;;;;7.30;6.70;;;;;;;28.29;53.35;101281.63;5033697;28;20057;-54
2023/08/22 01:15:33;;;;;;;7.10;6.50;;;;;;;28.30;53.45;101279.75;5035666;28;20049;-54
2023/08/22 01:18:04;;;;;;;8.60;7.80;;;;;;;28.30;53.13;101285.19;5035646;28;20117;-62
2023/08/22 01:20:31;;;;;;;9.13;7.47;;;;;;;28.31;53.07;101281.44;5035425;28;20068;-61
2023/08/22 01:22:59;;;;;;;7.07;6.38;;;;;;;28.31;53.19;101276.00;5034724;28;20049;-62
2023/08/22 01:25:28;;;;;;;7.70;6.97;;;;;;;28.32;53.59;101283.16;5035018;28;20054;-62
2023/08/22 01:28:28;;;;;;;7.82;7.03;;;;;;;28.32;53.31;101273.09;5034704;28;20052;-62
2023/08/22 01:31:10;;;;;;;10.15;7.00;;;;;;;28.34;53.65;101275.63;5024280;28;20054;-62
2023/08/22 01:33:56;;;;;;;7.53;6.82;;;;;;;28.33;53.56;101274.78;5034052;28;20049;-62
2023/08/22 01:36:25;;;;;;;7.47;6.38;;;;;;;28.34;53.43;101272.91;5034443;28;20049;-62
2023/08/22 01:38:54;;;;;;;7.55;6.85;;;;;;;28.34;53.34;101268.31;5035688;28;20060;-53
2023/08/22 01:41:24;;;;;;;8.50;6.95;;;;;;;28.35;53.42;101263.72;5044047;28;20429;-54
2023/08/22 01:43:51;;;;;;;6.68;6.07;;;;;;;28.36;53.68;101265.47;5041042;28;20045;-54
2023/08/22 01:46:18;;;;;;;8.13;6.95;;;;;;;28.37;53.39;101263.56;5049934;28;20048;-52
2023/08/22 01:48:46;;;;;;;7.28;6.30;;;;;;;28.36;53.36;101260.00;5040240;28;20037;-62
2023/08/22 01:51:14;;;;;;;7.55;6.72;;;;;;;28.37;53.42;101269.03;5033601;28;20054;-62
2023/08/22 01:53:43;;;;;;;7.15;6.45;;;;;;;28.38;53.89;101262.53;5046466;28;20057;-62
2023/08/22 01:56:10;;;;;;;7.10;6.40;;;;;;;28.38;53.53;101260.66;5038605;28;20045;-61
2023/08/22 01:58:37;;;;;;;7.50;6.68;;;;;;;28.38;53.48;101271.56;5047405;28;20049;-62
2023/08/22 02:01:09;;;;;;;7.15;6.55;;;;;;;28.39;53.83;101266.94;5043779;28;20045;-62
2023/08/22 02:03:38;;;;;;;7.13;6.43;;;;;;;28.39;53.78;101261.50;5037668;28;20408;-62
2023/08/22 02:06:06;;;;;;;7.45;6.65;;;;;;;28.40;53.90;101268.63;5044952;28;20056;-61
2023/08/22 02:08:34;;;;;;;7.53;6.35;;;;;;;28.40;53.79;101263.19;5039580;28;20048;-62
2023/08/22 02:11:01;;;;;;;7.38;6.68;;;;;;;28.40;53.59;101269.50;5043318;28;20045;-62
2023/08/22 02:13:31;;;;;;;7.78;6.38;;;;;;;28.41;53.52;101270.34;5049270;28;20045;-61
2023/08/22 02:15:59;;;;;;;7.38;6.63;;;;;;;28.42;53.54;101267.44;5036476;28;20049;-61
2023/08/22 02:18:27;;;;;;;7.30;6.50;;;;;;;28.41;53.62;101264.91;5046249;28;20064;-53
2023/08/22 02:20:56;;;;;;;8.20;6.53;;;;;;;28.42;53.74;101266.59;5044215;28;20048;-53
2023/08/22 02:23:23;;;;;;;7.07;6.45;;;;;;;28.41;53.43;101260.31;5038746;28;20049;-53
2023/08/22 02:25:51;;;;;;;6.72;6.10;;;;;;;28.43;53.48;101257.38;5047621;28;20076;-52
2023/08/22 02:28:19;;;;;;;7.32;6.55;;;;;;;28.42;53.47;101262.00;5041187;28;20132;-61
2023/08/22 02:30:46;;;;;;;7.28;6.13;;;;;;;28.43;53.88;101268.28;5041312;28;20056;-61
2023/08/22 02:33:13;;;;;;;7.55;6.68;;;;;;;28.43;53.89;101255.50;5048620;28;20040;-61
2023/08/22 02:35:41;;;;;;;7.00;6.40;;;;;;;28.43;53.93;101262.84;5036322;28;20056;-61
2023/08/22 02:38:08;;;;;;;6.93;6.07;;;;;;;28.43;53.77;101260.13;5044437;28;20064;-61
2023/08/22 02:40:35;;;;;;;7.57;6.85;;;;;;;28.43;53.75;101260.13;5043300;28;20064;-62
2023/08/22 02:43:03;;;;;;;6.80;6.15;;;;;;;28.43;53.83;101255.50;5038457;28;20044;-61
2023/08/22 02:45:31;;;;;;;7.45;6.60;;;;;;;28.44;53.91;101261.78;5047907;28;20045;-61
2023/08/22 02:47:58;;;;;;;6.93;6.28;;;;;;;28.44;53.71;101264.53;5033145;28;20049;-61
2023/08/22 02:50:26;;;;;;;7.70;6.90;;;;;;;28.44;53.45;101259.94;5034237;28;20056;-61
2023/08/22 02:52:53;;;;;;;6.85;6.25;;;;;;;28.46;53.31;101262.47;5031876;28;20046;-61
2023/08/22 02:55:20;;;;;;;8.00;7.20;;;;;;;28.44;53.39;101259.94;5032475;28;20061;-61
2023/08/22 02:57:48;;;;;;;7.75;7.00;;;;;;;28.46;53.72;101257.03;5034478;28;20060;-52
2023/08/22 03:00:15;;;;;;;7.13;6.53;;;;;;;28.46;53.72;101262.47;5032014;28;20049;-53
2023/08/22 03:02:43;;;;;;;7.35;6.70;;;;;;;28.46;53.37;101260.59;5033670;28;20049;-54
2023/08/22 03:05:12;;;;;;;7.25;6.60;;;;;;;28.45;53.62;101253.47;5032186;28;20066;-54
2023/08/22 03:07:41;;;;;;;7.57;6.88;;;;;;;28.45;53.56;101256.19;5032962;28;20049;-54
2023/08/22 03:10:11;;;;;;;7.60;6.90;;;;;;;28.46;53.44;101254.31;5043786;28;20057;-53
2023/08/22 03:12:39;;;;;;;7.43;6.72;;;;;;;28.47;53.61;101261.44;5035653;28;20046;-53
2023/08/22 03:15:07;;;;;;;8.52;7.43;;;;;;;28.47;53.80;101261.44;5049881;28;20076;-53
2023/08/22 03:17:39;;;;;;;6.97;6.32;;;;;;;28.47;53.80;101267.72;5045370;28;20518;-53
2023/08/22 03:20:08;;;;;;;7.30;6.60;;;;;;;28.47;53.71;101265.00;5044602;28;20061;-54
2023/08/22 03:22:35;;;;;;;6.82;6.22;;;;;;;28.48;53.43;101268.56;5050959;28;20063;-53
2023/08/22 03:25:03;;;;;;;7.38;6.75;;;;;;;28.47;53.24;101275.91;5041056;28;20410;-54
2023/08/22 03:27:33;;;;;;;7.10;6.50;;;;;;;28.48;53.64;101266.72;5044792;28;20048;-61
2023/08/22 03:30:01;;;;;;;7.40;6.70;;;;;;;28.47;53.27;101275.91;5042776;28;20058;-61
2023/08/22 03:32:33;;;;;;;7.33;6.70;;;;;;;28.48;53.31;101272.19;5035721;28;20045;-61
2023/08/22 03:35:03;;;;;;;8.43;7.15;;;;;;;28.48;53.32;101272.19;5041377;28;20048;-60
2023/08/22 03:37:32;;;;;;;7.25;6.55;;;;;;;28.49;53.34;101276.59;5045440;28;20053;-61
2023/08/22 03:40:01;;;;;;;7.35;6.65;;;;;;;28.49;53.77;101275.75;5049517;28;20045;-61
2023/08/22 03:42:29;;;;;;;7.88;7.13;;;;;;;28.49;53.36;101279.31;5039660;28;20044;-61
2023/08/22 03:45:02;;;;;;;9.25;6.50;;;;;;;28.49;53.78;101273.00;5047536;28;20072;-61
2023/08/22 03:47:30;;;;;;;7.57;6.88;;;;;;;28.49;53.47;101279.31;5048753;28;20057;-61
2023/08/22 03:50:00;;;;;;;7.75;7.03;;;;;;;28.50;53.45;101274.69;5039878;28;20535;-61
2023/08/22 03:52:29;;;;;;;7.57;6.88;;;;;;;28.50;53.36;101274.69;5040652;28;20049;-61
2023/08/22 03:54:56;;;;;;;7.88;6.75;;;;;;;28.50;53.60;101278.28;5048040;28;20049;-61
2023/08/22 03:57:24;;;;;;;7.30;6.60;;;;;;;28.50;53.68;101271.97;5047101;28;20060;-61
2023/08/22 03:59:51;;;;;;;7.30;6.60;;;;;;;28.50;53.62;101270.09;5039152;28;20057;-61
2023/08/22 04:02:19;;;;;;;7.25;6.57;;;;;;;28.50;53.63;101270.09;5051213;28;20416;-61
2023/08/22 04:04:46;;;;;;;8.23;7.28;;;;;;;28.51;53.46;101262.78;5043179;28;20519;-61
2023/08/22 04:07:13;;;;;;;8.10;6.88;;;;;;;28.50;53.42;101270.09;5042766;28;20049;-58
2023/08/22 04:09:42;;;;;;;7.57;6.85;;;;;;;28.50;53.45;101272.81;5036038;28;20053;-61
2023/08/22 04:12:09;;;;;;;7.43;6.72;;;;;;;28.52;53.51;101272.63;5040714;28;20052;-62
2023/08/22 04:14:37;;;;;;;6.75;6.15;;;;;;;28.51;53.59;101271.78;5035456;28;20060;-61
2023/08/22 04:17:04;;;;;;;7.72;7.03;;;;;;;28.51;53.33;101279.13;5047761;28;20072;-61
2023/08/22 04:19:32;;;;;;;7.03;6.32;;;;;;;28.51;53.68;101271.78;5039196;28;20049;-53
2023/08/22 04:21:59;;;;;;;7.90;7.10;;;;;;;28.52;53.72;101280.81;5049667;28;20049;-52
2023/08/22 04:24:27;;;;;;;7.35;6.72;;;;;;;28.51;53.46;101282.69;5043214;28;20053;-58
2023/08/22 04:26:54;;;;;;;8.05;7.35;;;;;;;28.51;53.15;101279.13;5041556;28;20049;-58
2023/08/22 04:29:23;;;;;;;7.97;7.28;;;;;;;28.50;52.98;101275.53;5050448;28;20060;-59
2023/08/22 04:31:50;;;;;;;7.90;7.10;;;;;;;28.49;52.86;101284.75;5039287;28;20045;-59
2023/08/22 04:34:18;;;;;;;8.07;7.32;;;;;;;28.47;52.16;101278.63;5045781;28;20053;-59
2023/08/22 04:36:55;;;;;;;7.88;7.18;;;;;;;28.47;51.90;101288.69;5047276;28;20056;-59
2023/08/22 04:39:23;;;;;;;8.27;7.50;;;;;;;28.45;51.97;101283.44;5039905;28;20050;-59
2023/08/22 04:41:59;;;;;;;7.45;6.75;;;;;;;28.44;51.53;101284.47;5047724;28;20053;-59
2023/08/22 04:44:40;;;;;;;8.95;7.60;;;;;;;28.42;51.59;101288.38;5047016;28;20071;-59
2023/08/22 04:47:07;;;;;;;8.25;7.45;;;;;;;28.41;51.17;101286.69;5038463;28;20053;-59
2023/08/22 04:49:34;;;;;;;7.80;7.10;;;;;;;28.40;51.35;101280.41;5035992;28;20049;-60
2023/08/22 04:52:02;;;;;;;7.45;6.72;;;;;;;28.38;51.33;101287.91;5043209;28;20418;-61
2023/08/22 04:54:29;;;;;;;6.97;6.35;;;;;;;28.37;51.04;101291.66;5041774;28;20050;-61
2023/08/22 04:56:57;;;;;;;8.25;7.32;;;;;;;28.36;51.14;101292.69;5033898;28;20056;-61
2023/08/22 04:59:24;;;;;;;7.85;7.15;;;;;;;28.36;51.11;101289.97;5034051;28;20052;-59
2023/08/22 05:01:52;;;;;;;7.72;7.03;;;;;;;28.35;50.89;101297.22;5034735;28;20052;-60
2023/08/22 05:04:19;;;;;;;8.27;6.63;;;;;;;28.36;50.75;101289.97;5033722;28;20045;-59
2023/08/22 05:06:48;;;;;;;8.18;6.97;;;;;;;28.38;50.90;101298.78;5033735;28;20049;-59
2023/08/22 05:09:16;;;;;;;8.38;7.57;;;;;;;28.38;51.20;101297.94;5019628;28;20056;-59
2023/08/22 05:11:44;;;;;;;8.02;7.18;;;;;;;28.39;51.16;101297.75;5045455;28;20049;-59
2023/08/22 05:14:13;;;;;;;8.85;7.63;;;;;;;28.40;50.73;101295.88;5033458;28;20050;-60
2023/08/22 05:16:42;;;;;;;8.15;6.68;;;;;;;28.40;50.88;101296.75;5036568;28;20045;-59
2023/08/22 05:19:10;;;;;;;7.03;6.43;;;;;;;28.40;51.10;101287.69;5048052;28;20060;-62
2023/08/22 05:21:37;;;;;;;8.93;7.40;;;;;;;28.40;50.69;101280.41;5042254;28;20102;-62
2023/08/22 05:24:05;;;;;;;7.97;7.25;;;;;;;28.41;51.07;101283.97;5041389;28;20113;-62
2023/08/22 05:26:33;;;;;;;7.80;7.10;;;;;;;28.42;50.92;101285.66;5049354;28;20053;-62
2023/08/22 05:29:00;;;;;;;7.50;6.80;;;;;;;28.41;51.10;101287.53;5039317;28;20049;-61
2023/08/22 05:31:28;;;;;;;7.72;7.03;;;;;;;28.42;51.15;101289.22;5044161;28;20050;-62
2023/08/22 05:33:55;;;;;;;7.40;6.70;;;;;;;28.41;51.42;101298.44;5045907;28;20045;-61
2023/08/22 05:36:23;;;;;;;8.20;7.40;;;;;;;28.42;51.31;101289.22;5037048;28;20076;-61
2023/08/22 05:38:51;;;;;;;7.90;7.10;;;;;;;28.42;50.89;101297.41;5045909;28;20424;-59
2023/08/22 05:41:19;;;;;;;7.43;6.72;;;;;;;28.41;50.64;101297.59;5034808;28;20396;-60
2023/08/22 05:43:46;;;;;;;8.23;7.53;;;;;;;28.40;50.88;101293.16;5032956;28;20057;-59
2023/08/22 05:46:14;;;;;;;8.00;7.20;;;;;;;28.40;51.13;101307.63;5048566;28;20053;-60
2023/08/22 05:48:41;;;;;;;8.15;7.35;;;;;;;28.40;50.73;101318.53;5038807;28;20045;-59
2023/08/22 05:51:08;;;;;;;8.05;7.25;;;;;;;28.40;50.79;101315.81;5049819;28;20045;-59
2023/08/22 05:53:36;;;;;;;8.40;7.25;;;;;;;28.40;50.83;101317.66;5033681;28;20385;-59
2023/08/22 05:56:03;;;;;;;8.65;7.72;;;;;;;28.40;51.01;101323.09;5048497;28;20075;-59
2023/08/22 05:58:30;;;;;;;9.48;7.40;;;;;;;28.39;50.70;101322.25;5038657;28;20056;-60
2023/08/22 06:00:58;;;;;;;7.13;6.47;;;;;;;28.38;50.56;101323.28;5041910;28;20053;-61
2023/08/22 06:03:26;;;;;;;7.60;6.90;;;;;;;28.39;51.04;101324.97;5039258;28;20054;-59
2023/08/22 06:05:53;;;;;;;7.40;6.63;;;;;;;28.37;51.02;101332.50;5049482;28;20044;-59
2023/08/22 06:08:20;;;;;;;8.25;7.47;;;;;;;28.36;50.55;101333.53;5039966;28;20048;-59
2023/08/22 06:10:49;;;;;;;7.78;7.07;;;;;;;28.34;51.21;101330.09;5033263;28;20053;-60
2023/08/22 06:13:16;;;;;;;8.10;7.30;;;;;;;28.32;50.87;101326.72;5032687;28;20068;-60
2023/08/22 06:15:46;;;;;;;7.93;7.22;;;;;;;28.30;50.96;101328.75;5032745;28;20057;-59
2023/08/22 06:18:16;;;;;;;8.30;7.50;;;;;;;28.29;51.17;101332.50;5041162;28;20052;-59
2023/08/22 06:20:44;;;;;;;8.45;7.63;;;;;;;28.29;51.34;101333.34;5043024;28;20057;-59
2023/08/22 06:23:11;;;;;;;8.65;7.82;;;;;;;28.31;51.87;101344.06;5034425;28;20037;-60
2023/08/22 06:25:38;;;;;;;8.32;6.82;;;;;;;28.29;51.79;101336.09;5034088;28;20048;-61
2023/08/22 06:28:08;;;;;;;7.88;7.00;;;;;;;28.29;52.12;101337.97;5040906;28;20045;-61
2023/08/22 06:30:35;;;;;;;9.48;6.95;;;;;;;28.28;51.94;101341.72;5043296;28;20052;-62
2023/08/22 06:33:03;;;;;;;7.95;7.15;;;;;;;28.26;51.49;101332.88;5024802;28;20048;-62
2023/08/22 06:35:31;;;;;;;8.13;7.32;;;;;;;28.25;51.67;101342.91;5033416;28;20057;-61
2023/08/22 06:37:58;;;;;;;7.85;7.18;;;;;;;28.24;52.08;101337.66;5033506;28;20492;-59
2023/08/22 06:40:26;;;;;;;8.00;7.30;;;;;;;28.23;51.93;101339.50;5032290;28;20049;-59
2023/08/22 06:42:53;;;;;;;10.25;8.00;;;;;;;28.24;52.47;101340.38;5032409;28;20058;-59
2023/08/22 06:45:30;;;;;;;7.70;7.00;;;;;;;28.25;52.46;101342.06;5037920;28;20379;-59
2023/08/22 06:47:57;;;;;;;7.82;7.03;;;;;;;28.24;52.05;101346.66;5043874;28;20049;-61
2023/08/22 06:50:25;;;;;;;8.65;7.20;;;;;;;28.25;51.66;101350.25;5050296;28;20044;-62
2023/08/22 06:52:52;;;;;;;8.25;7.13;;;;;;;28.24;51.57;101343.94;5045081;28;20483;-62
2023/08/22 06:55:19;;;;;;;10.98;7.78;;;;;;;28.25;51.59;101339.34;5039299;28;20052;-62
2023/08/22 06:57:47;;;;;;;8.40;6.88;;;;;;;28.27;52.32;101337.28;5039443;28;20056;-60
2023/08/22 07:00:16;;;;;;;8.40;7.40;;;;;;;28.29;52.63;101348.84;5044483;28;20050;-61
2023/08/22 07:02:45;;;;;;;8.60;7.43;;;;;;;28.29;52.45;101338.81;5039596;28;20057;-61
2023/08/22 07:05:14;;;;;;;8.57;7.20;;;;;;;28.33;52.33;101344.75;5039678;28;20049;-60
2023/08/22 07:07:42;;;;;;;8.25;6.95;;;;;;;28.35;52.04;101339.94;5039244;28;20392;-60
2023/08/22 07:10:11;;;;;;;8.43;7.53;;;;;;;28.37;52.46;101334.38;5051284;28;20414;-61
2023/08/22 07:12:41;;;;;;;7.30;6.68;;;;;;;28.38;52.02;101339.63;5042427;28;20411;-61
2023/08/22 07:15:09;;;;;;;7.95;7.00;;;;;;;28.40;52.01;101337.59;5039739;28;20045;-61
2023/08/22 07:17:37;;;;;;;7.72;6.88;;;;;;;28.42;52.07;101343.69;5050157;28;20483;-60
2023/08/22 07:20:07;;;;;;;7.78;6.97;;;;;;;28.44;51.93;101341.66;5039920;28;20045;-61
2023/08/22 07:22:35;;;;;;;9.45;7.20;;;;;;;28.45;51.76;101346.06;5039931;28;20056;-61
2023/08/22 07:25:03;;;;;;;8.05;7.32;;;;;;;28.45;51.63;101337.06;5039826;28;20056;-60
2023/08/22 07:27:30;;;;;;;7.93;7.20;;;;;;;28.46;51.78;101347.75;5039782;28;20056;-58
2023/08/22 07:29:58;;;;;;;7.57;6.88;;;;;;;28.49;51.55;101343.84;5039754;28;20061;-58
2023/08/22 07:32:25;;;;;;;7.75;7.03;;;;;;;28.52;51.79;101355.22;5039664;28;20049;-58
2023/08/22 07:34:52;;;;;;;9.77;7.85;;;;;;;28.54;51.91;101344.97;5039855;28;20052;-59
2023/08/22 07:37:20;;;;;;;8.40;7.10;;;;;;;28.53;51.59;101356.91;5039735;28;20054;-59
2023/08/22 07:39:47;;;;;;;10.15;7.43;;;;;;;28.53;51.71;101348.72;5039635;28;20045;-59
2023/08/22 07:42:16;;;;;;;8.43;7.43;;;;;;;28.53;51.24;101356.91;5039585;28;20052;-59
2023/08/22 07:44:44;;;;;;;8.02;7.18;;;;;;;28.52;50.59;101355.22;5039831;28;20407;-59
2023/08/22 07:47:11;;;;;;;7.63;6.82;;;;;;;28.55;50.22;101364.88;5048259;28;20411;-59
2023/08/22 07:49:41;;;;;;;8.07;7.28;;;;;;;28.55;50.44;101351.28;5045466;28;20049;-59
2023/08/22 07:52:08;;;;;;;7.22;6.53;;;;;;;28.57;50.58;101355.50;5055133;28;20403;-59
2023/08/22 07:54:35;;;;;;;8.02;7.22;;;;;;;28.59;50.74;101360.78;5040230;28;20052;-59
2023/08/22 07:57:03;;;;;;;7.78;7.05;;;;;;;28.62;50.90;101354.13;5040302;28;20068;-59
2023/08/22 07:59:44;;;;;;;7.20;6.60;;;;;;;28.64;50.86;101357.50;5039461;28;20128;-57
2023/08/22 08:02:12;;;;;;;8.30;7.43;;;;;;;28.65;50.96;101356.50;5035427;28;20053;-57
2023/08/22 08:04:39;;;;;;;8.68;7.25;;;;;;;28.66;51.29;101356.31;5050937;28;20044;-62
2023/08/22 08:07:06;;;;;;;7.13;6.43;;;;;;;28.67;51.39;101351.69;5044406;28;20042;-62
2023/08/22 08:09:34;;;;;;;7.45;6.75;;;;;;;28.69;51.08;101349.66;5036477;28;20139;-57
2023/08/22 08:12:03;;;;;;;7.40;6.75;;;;;;;28.70;51.29;101356.78;5040113;28;20041;-57
2023/08/22 08:14:32;;;;;;;7.25;6.55;;;;;;;28.70;51.62;101356.78;5043622;28;20045;-57
2023/08/22 08:17:00;;;;;;;7.88;7.03;;;;;;;28.69;51.26;101355.94;5043254;28;20052;-57
2023/08/22 08:19:27;;;;;;;8.15;7.35;;;;;;;28.70;51.11;101352.19;5036139;28;20049;-61
2023/08/22 08:21:55;;;;;;;8.05;7.25;;;;;;;28.71;51.03;101351.16;5036016;28;20053;-62
2023/08/22 08:24:22;;;;;;;7.47;6.78;;;;;;;28.71;51.45;101356.59;5036315;28;20040;-62
2023/08/22 08:26:49;;;;;;;8.00;7.18;;;;;;;28.72;51.14;101361.00;5035944;28;20044;-62
2023/08/22 08:29:18;;;;;;;7.32;6.45;;;;;;;28.72;51.35;101355.56;5036089;28;20053;-58
2023/08/22 08:31:47;;;;;;;7.22;6.53;;;;;;;28.73;51.25;101345.53;5035781;28;20057;-57
2023/08/22 08:34:14;;;;;;;7.50;6.80;;;;;;;28.73;51.56;101351.84;5036155;28;20053;-57
2023/08/22 08:36:42;;;;;;;7.78;7.07;;;;;;;28.74;51.60;101345.34;5035634;28;20076;-57
2023/08/22 08:39:09;;;;;;;8.57;7.60;;;;;;;28.75;51.41;101346.19;5035677;28;20038;-62
2023/08/22 08:41:42;;;;;;;8.05;7.32;;;;;;;28.75;51.25;101341.59;5035948;28;20041;-62
2023/08/22 08:44:13;;;;;;;9.00;7.82;;;;;;;28.77;51.50;101355.88;5045924;28;20045;-62
2023/08/22 08:46:42;;;;;;;7.93;7.18;;;;;;;28.77;51.28;101336.81;5035739;28;20496;-62
2023/08/22 08:49:11;;;;;;;8.32;7.13;;;;;;;28.78;51.72;101341.22;5036337;28;20057;-61
2023/08/22 08:51:39;;;;;;;8.20;7.40;;;;;;;28.79;51.18;101347.53;5036101;28;20395;-62
2023/08/22 08:54:07;;;;;;;7.68;6.97;;;;;;;28.78;51.29;101343.94;5035508;28;20049;-62
2023/08/22 08:56:34;;;;;;;10.00;7.88;;;;;;;28.80;51.47;101338.31;5035270;28;20049;-63
2023/08/22 08:59:02;;;;;;;8.35;7.43;;;;;;;28.80;51.55;101335.59;5034137;28;20045;-58
2023/08/22 09:01:30;;;;;;;8.25;7.43;;;;;;;28.80;51.29;101336.47;5035844;28;20042;-57
2023/08/22 09:03:57;;;;;;;8.82;8.02;;;;;;;28.81;51.11;101342.75;5035307;28;20049;-58
2023/08/22 09:06:26;;;;;;;8.73;7.97;;;;;;;28.81;51.48;101349.03;5035334;28;20045;-58
2023/08/22 09:09:08;;;;;;;8.05;7.28;;;;;;;28.83;51.38;101346.13;5034554;28;20484;-60
2023/08/22 09:11:41;;;;;;;7.63;6.88;;;;;;;28.83;51.12;101333.34;5035291;28;20059;-62
2023/08/22 09:14:21;;;;;;;9.07;8.15;;;;;;;28.84;51.29;101334.19;5038001;28;20491;-61
2023/08/22 09:16:49;;;;;;;8.00;7.30;;;;;;;28.85;50.98;101335.06;5050161;28;20053;-62
2023/08/22 09:19:17;;;;;;;7.65;6.93;;;;;;;28.85;51.28;101335.91;5035482;28;20052;-58
2023/08/22 09:21:58;;;;;;;8.98;8.07;;;;;;;28.88;51.14;101334.66;5034816;28;20061;-58
2023/08/22 09:24:26;;;;;;;8.82;8.02;;;;;;;28.88;51.41;101329.22;5034734;28;20049;-58
2023/08/22 09:26:54;;;;;;;8.80;7.60;;;;;;;28.89;51.20;101330.94;5034613;28;20047;-58
2023/08/22 09:29:29;;;;;;;8.98;7.40;;;;;;;28.89;51.60;101330.94;5045136;28;20389;-57
2023/08/22 09:32:03;;;;;;;9.05;8.18;;;;;;;28.89;51.54;101329.06;5033782;28;20519;-58
2023/08/22 09:34:32;;;;;;;7.88;7.15;;;;;;;28.90;51.33;101325.28;5036112;28;20056;-58
2023/08/22 09:37:00;;;;;;;8.68;7.07;;;;;;;28.91;51.24;101328.84;5046424;28;20057;-58
2023/08/22 09:39:29;;;;;;;8.60;7.70;;;;;;;28.92;51.90;101319.66;5034555;28;20037;-59
2023/08/22 09:41:58;;;;;;;9.02;8.18;;;;;;;28.92;53.81;101327.81;5034329;28;20045;-59
2023/08/22 09:44:27;;;;;;;8.88;8.02;;;;;;;28.91;54.87;101320.69;5034424;28;20041;-58
2023/08/22 09:46:57;;;;;;;9.15;8.05;;;;;;;28.90;55.35;101330.75;5034597;28;20053;-58
2023/08/22 09:49:24;;;;;;;8.73;7.93;;;;;;;28.89;55.26;101317.31;5034403;28;20069;-58
2023/08/22 09:51:55;;;;;;;9.00;8.20;;;;;;;28.87;55.39;101317.47;5034523;28;20041;-58
2023/08/22 09:54:23;;;;;;;8.73;7.82;;;;;;;28.84;55.76;101312.38;5033123;28;20060;-58
2023/08/22 09:56:51;;;;;;;8.95;8.05;;;;;;;28.84;55.61;101315.09;5034825;28;20052;-58
2023/08/22 09:59:19;;;;;;;8.95;8.05;;;;;;;28.82;56.31;101309.84;5034222;28;20060;-60
2023/08/22 10:01:48;;;;;;;8.95;8.15;;;;;;;28.80;56.36;101301.03;5033889;28;20049;-61
2023/08/22 10:04:17;;;;;;;8.93;8.07;;;;;;;28.80;56.12;101301.03;5038042;28;20054;-61
2023/08/22 10:06:47;;;;;;;9.02;8.23;;;;;;;28.79;56.39;101298.47;5044308;28;20056;-58
2023/08/22 10:09:18;;;;;;;9.75;8.75;;;;;;;28.78;56.23;101294.91;5034714;28;20054;-58
2023/08/22 10:11:50;;;;;;;9.48;8.68;;;;;;;28.79;56.49;101295.75;5049021;28;20479;-58
2023/08/22 10:14:36;;;;;;;9.98;8.95;;;;;;;28.79;56.63;101287.56;5040038;28;20049;-58
2023/08/22 10:17:03;;;;;;;9.27;8.48;;;;;;;28.79;56.52;101288.41;5040995;28;20041;-58
2023/08/22 10:19:31;;;;;;;10.48;9.10;;;;;;;28.79;57.13;101290.28;5033780;28;20049;-58
2023/08/22 10:22:10;;;;;;;9.52;8.73;;;;;;;28.79;56.72;101291.13;5048065;28;20045;-58
2023/08/22 10:24:39;;;;;;;10.35;9.38;;;;;;;28.79;57.18;101287.56;5033414;28;20052;-58
2023/08/22 10:27:07;;;;;;;8.98;8.18;;;;;;;28.79;56.78;101285.69;5048578;28;20045;-58
2023/08/22 10:29:38;;;;;;;9.43;8.52;;;;;;;28.79;57.10;101285.69;5034635;28;20495;-58
2023/08/22 10:32:05;;;;;;;9.35;8.55;;;;;;;28.80;57.37;101278.34;5040580;28;20049;-58
2023/08/22 10:34:39;;;;;;;9.93;9.02;;;;;;;28.81;57.27;101271.91;5042134;28;20408;-58
2023/08/22 10:37:20;;;;;;;9.48;8.05;;;;;;;28.82;56.77;101268.13;5048770;28;20139;-58
2023/08/22 10:39:49;;;;;;;10.10;9.20;;;;;;;28.82;56.74;101262.69;5034068;28;20510;-61
2023/08/22 10:42:23;;;;;;;9.90;9.00;;;;;;;28.83;56.55;101261.66;5033561;28;20053;-61
2023/08/22 10:44:56;;;;;;;9.38;8.57;;;;;;;28.83;56.90;101258.91;5033256;28;20045;-61
2023/08/22 10:47:26;;;;;;;9.52;8.65;;;;;;;28.81;56.77;101256.38;5033491;28;20041;-59
2023/08/22 10:49:55;;;;;;;10.15;9.25;;;;;;;28.83;56.89;101258.91;5038237;28;20076;-58
2023/08/22 10:52:43;;;;;;;9.90;9.00;;;;;;;28.83;56.68;101251.59;5038542;28;20082;-58
2023/08/22 10:55:12;;;;;;;10.65;9.55;;;;;;;28.84;56.00;101246.97;5033617;28;20053;-58
2023/08/22 10:57:42;;;;;;;9.82;8.93;;;;;;;28.85;56.28;101242.41;5033219;28;20052;-58
2023/08/22 11:00:18;;;;;;;9.43;8.38;;;;;;;28.88;56.35;101250.19;5032739;28;20045;-58
2023/08/22 11:02:51;;;;;;;9.75;8.75;;;;;;;28.87;56.56;101249.34;5033574;28;20076;-58
2023/08/22 11:05:19;;;;;;;10.35;9.18;;;;;;;28.87;56.49;101243.91;5033872;28;20076;-58
2023/08/22 11:07:48;;;;;;;9.80;8.80;;;;;;;28.87;56.52;101240.31;5041926;28;20061;-60
2023/08/22 11:10:23;;;;;;;9.20;8.32;;;;;;;28.86;56.32;101241.38;5039626;28;20049;-61
2023/08/22 11:12:54;;;;;;;10.82;9.70;;;;;;;28.88;56.24;101237.41;5033430;28;20069;-61
2023/08/22 11:15:22;;;;;;;9.20;8.40;;;;;;;28.88;55.26;101234.69;5033725;28;20072;-59
2023/08/22 11:17:50;;;;;;;9.70;8.88;;;;;;;28.89;55.54;101230.94;5039447;28;20048;-59
2023/08/22 11:20:23;;;;;;;8.50;7.72;;;;;;;28.90;55.47;101231.78;5035352;28;20866;-59
2023/08/22 11:22:51;;;;;;;;;;;;;;;28.88;56.14;101240.13;5036815;28;20046;-58
2023/08/22 11:25:23;;;;;;;9.50;8.68;;;;;;;28.90;56.09;101231.78;5033384;28;19929;-59
2023/08/22 11:27:51;;;;;;;9.27;8.38;;;;;;;28.89;56.16;101224.66;5031499;28;20053;-59
2023/08/22 11:30:19;;;;;;;9.02;8.23;;;;;;;28.89;55.96;101225.50;5032325;28;20049;-59
2023/08/22 11:32:47;;;;;;;10.20;9.18;;;;;;;28.89;56.29;101228.22;5037242;28;20052;-59